createdAt,value
2017-03-25T00:00:32.356Z,6.09
2017-03-25T00:01:13.083Z,6.14
2017-03-25T00:01:53.630Z,6.07
2017-03-25T00:02:34.297Z,6.17
2017-03-25T00:03:14.924Z,6.08
2017-03-25T00:03:55.592Z,6.05
2017-03-25T00:04:36.232Z,6.04
2017-03-25T00:05:16.933Z,5.97
2017-03-25T00:05:57.550Z,6.07
2017-03-25T00:06:38.175Z,6.04
2017-03-25T00:07:18.774Z,5.99
2017-03-25T00:07:59.393Z,5.94
2017-03-25T00:08:40.030Z,5.94
2017-03-25T00:09:20.622Z,5.93
2017-03-25T00:10:01.266Z,5.89
2017-03-25T00:10:41.888Z,5.91
2017-03-25T00:11:22.452Z,5.87
2017-03-25T00:12:03.120Z,5.82
2017-03-25T00:12:43.771Z,5.87
2017-03-25T00:13:24.410Z,5.83
2017-03-25T00:14:05.076Z,5.8
2017-03-25T00:14:45.730Z,5.71
2017-03-25T00:15:26.383Z,5.73
2017-03-25T00:16:07.032Z,5.8
2017-03-25T00:16:47.695Z,5.72
2017-03-25T00:17:29.367Z,5.65
2017-03-25T00:18:11.030Z,5.69
2017-03-25T00:18:51.693Z,5.71
2017-03-25T00:19:32.352Z,5.57
2017-03-25T00:20:13.003Z,5.66
2017-03-25T00:20:53.636Z,5.62
2017-03-25T00:21:34.305Z,5.64
2017-03-25T00:22:14.968Z,5.65
2017-03-25T00:22:55.665Z,5.65
2017-03-25T00:23:36.295Z,5.62
2017-03-25T00:24:16.947Z,5.64
2017-03-25T00:24:58.624Z,5.66
2017-03-25T00:25:41.332Z,5.61
2017-03-25T00:26:22.080Z,5.65
2017-03-25T00:27:02.784Z,5.62
2017-03-25T00:27:43.383Z,5.65
2017-03-25T00:28:24.089Z,5.56
2017-03-25T00:29:04.801Z,5.64
2017-03-25T00:29:45.505Z,5.56
2017-03-25T00:30:26.056Z,5.57
2017-03-25T00:31:06.726Z,5.61
2017-03-25T00:31:47.421Z,5.5
2017-03-25T00:32:28.109Z,5.61
2017-03-25T00:33:08.667Z,5.57
2017-03-25T00:33:49.320Z,5.51
2017-03-25T00:34:30.018Z,5.5
2017-03-25T00:35:10.724Z,5.51
2017-03-25T00:35:51.279Z,5.56
2017-03-25T00:36:31.949Z,5.56
2017-03-25T00:37:13.040Z,5.51
2017-03-25T00:37:53.638Z,5.48
2017-03-25T00:38:34.198Z,5.59
2017-03-25T00:39:14.873Z,5.57
2017-03-25T00:39:55.556Z,5.54
2017-03-25T00:40:37.277Z,5.46
2017-03-25T00:41:17.846Z,5.57
2017-03-25T00:41:58.499Z,5.44
2017-03-25T00:42:40.308Z,5.51
2017-03-25T00:43:21.018Z,5.48
2017-03-25T00:44:01.574Z,5.41
2017-03-25T00:44:42.237Z,5.38
2017-03-25T00:45:22.819Z,5.39
2017-03-25T00:46:03.419Z,5.44
2017-03-25T00:46:43.998Z,5.35
2017-03-25T00:47:24.746Z,5.44
2017-03-25T00:48:05.434Z,5.35
2017-03-25T00:48:46.035Z,5.41
2017-03-25T00:49:26.600Z,5.35
2017-03-25T00:50:07.254Z,5.32
2017-03-25T00:50:47.946Z,5.33
2017-03-25T00:51:28.546Z,5.39
2017-03-25T00:52:09.200Z,5.38
2017-03-25T00:52:49.767Z,5.38
2017-03-25T00:53:31.526Z,5.39
2017-03-25T00:54:12.282Z,5.36
2017-03-25T00:54:52.935Z,5.32
2017-03-25T00:55:33.689Z,5.28
2017-03-25T00:56:14.444Z,5.29
2017-03-25T00:56:55.097Z,5.23
2017-03-25T00:57:36.774Z,5.23
2017-03-25T00:58:17.529Z,5.25
2017-03-25T00:58:58.107Z,5.23
2017-03-25T00:59:39.861Z,5.23
2017-03-25T01:00:20.511Z,5.2
2017-03-25T01:01:01.267Z,5.23
2017-03-25T01:01:41.824Z,5.23
2017-03-25T01:02:22.608Z,5.25
2017-03-25T01:03:03.290Z,5.28
2017-03-25T01:03:43.984Z,5.23
2017-03-25T01:04:24.563Z,5.23
2017-03-25T01:05:06.230Z,5.23
2017-03-25T01:05:46.927Z,5.26
2017-03-25T01:06:27.618Z,5.23
2017-03-25T01:07:08.270Z,5.26
2017-03-25T01:07:49.947Z,5.26
2017-03-25T01:08:31.623Z,5.26
2017-03-25T01:09:12.271Z,5.2
2017-03-25T01:09:52.849Z,5.26
2017-03-25T01:10:33.475Z,5.2
2017-03-25T01:11:15.158Z,5.21
2017-03-25T01:11:55.728Z,5.2
2017-03-25T01:12:37.387Z,5.12
2017-03-25T01:13:18.030Z,5.17
2017-03-25T01:13:59.611Z,5.2
2017-03-25T01:14:40.178Z,5.18
2017-03-25T01:15:20.852Z,5.1
2017-03-25T01:16:01.443Z,5.08
2017-03-25T01:16:42.018Z,5.14
2017-03-25T01:17:22.570Z,5.07
2017-03-25T01:18:03.241Z,5.07
2017-03-25T01:18:43.891Z,5.05
2017-03-25T01:19:24.545Z,5.05
2017-03-25T01:20:05.607Z,5
2017-03-25T01:20:46.266Z,5
2017-03-25T01:21:26.925Z,4.96
2017-03-25T01:22:07.549Z,4.96
2017-03-25T01:22:48.121Z,5.05
2017-03-25T01:23:28.771Z,5.05
2017-03-25T01:24:09.411Z,4.92
2017-03-25T01:24:49.977Z,4.92
2017-03-25T01:25:30.630Z,4.96
2017-03-25T01:26:11.262Z,5.04
2017-03-25T01:26:51.831Z,5.08
2017-03-25T01:27:32.483Z,4.94
2017-03-25T01:28:13.068Z,4.96
2017-03-25T01:28:53.668Z,4.93
2017-03-25T01:29:34.236Z,4.97
2017-03-25T01:30:14.910Z,4.96
2017-03-25T01:30:55.475Z,4.97
2017-03-25T01:31:36.076Z,5.02
2017-03-25T01:32:16.627Z,4.97
2017-03-25T01:32:57.299Z,4.97
2017-03-25T01:33:37.951Z,4.94
2017-03-25T01:34:18.603Z,4.96
2017-03-25T01:34:59.259Z,4.94
2017-03-25T01:35:39.905Z,4.92
2017-03-25T01:36:20.562Z,4.92
2017-03-25T01:37:01.212Z,4.84
2017-03-25T01:37:41.874Z,4.92
2017-03-25T01:38:22.558Z,4.87
2017-03-25T01:39:03.163Z,4.89
2017-03-25T01:39:43.840Z,4.86
2017-03-25T01:40:24.477Z,4.92
2017-03-25T01:41:05.134Z,4.89
2017-03-25T01:41:45.830Z,4.87
2017-03-25T01:42:26.427Z,4.89
2017-03-25T01:43:21.948Z,4.89
2017-03-25T01:44:02.490Z,4.93
2017-03-25T01:44:44.073Z,4.8
2017-03-25T01:45:24.666Z,4.84
2017-03-25T01:46:05.257Z,4.86
2017-03-25T01:46:45.819Z,4.8
2017-03-25T01:47:26.469Z,4.77
2017-03-25T01:48:07.122Z,4.82
2017-03-25T01:48:47.793Z,4.86
2017-03-25T01:49:28.432Z,4.71
2017-03-25T01:50:09.090Z,4.7
2017-03-25T01:50:49.729Z,4.73
2017-03-25T01:51:30.402Z,4.71
2017-03-25T01:52:10.983Z,4.7
2017-03-25T01:52:51.583Z,4.78
2017-03-25T01:53:32.149Z,4.68
2017-03-25T01:54:12.791Z,4.77
2017-03-25T01:54:53.384Z,4.75
2017-03-25T01:55:33.957Z,4.67
2017-03-25T01:56:14.525Z,4.68
2017-03-25T01:56:55.095Z,4.63
2017-03-25T01:57:35.698Z,4.71
2017-03-25T01:58:16.291Z,4.62
2017-03-25T01:58:56.862Z,4.67
2017-03-25T01:59:37.497Z,4.63
2017-03-25T02:00:18.106Z,4.68
2017-03-25T02:00:58.699Z,4.62
2017-03-25T02:01:39.263Z,4.56
2017-03-25T02:02:19.913Z,4.59
2017-03-25T02:03:00.556Z,4.6
2017-03-25T02:03:41.267Z,4.63
2017-03-25T02:04:21.887Z,4.62
2017-03-25T02:05:02.530Z,4.56
2017-03-25T02:05:43.175Z,4.55
2017-03-25T02:06:23.837Z,4.55
2017-03-25T02:07:04.499Z,4.49
2017-03-25T02:07:45.152Z,4.52
2017-03-25T02:08:25.794Z,4.5
2017-03-25T02:09:06.446Z,4.49
2017-03-25T02:09:47.104Z,4.48
2017-03-25T02:10:27.751Z,4.48
2017-03-25T02:11:08.403Z,4.44
2017-03-25T02:11:49.061Z,4.48
2017-03-25T02:12:29.651Z,4.5
2017-03-25T02:13:10.244Z,4.45
2017-03-25T02:13:50.813Z,4.4
2017-03-25T02:14:32.401Z,4.42
2017-03-25T02:15:13.083Z,4.35
2017-03-25T02:15:53.676Z,4.4
2017-03-25T02:16:34.243Z,4.41
2017-03-25T02:17:14.890Z,4.38
2017-03-25T02:17:55.572Z,4.34
2017-03-25T02:18:36.214Z,4.38
2017-03-25T02:19:16.866Z,4.37
2017-03-25T02:19:57.510Z,4.38
2017-03-25T02:20:38.187Z,4.34
2017-03-25T02:21:18.824Z,4.4
2017-03-25T02:21:59.454Z,4.35
2017-03-25T02:22:40.122Z,4.34
2017-03-25T02:23:22.720Z,4.38
2017-03-25T02:24:03.394Z,4.34
2017-03-25T02:24:55.919Z,4.37
2017-03-25T02:25:41.479Z,4.34
2017-03-25T02:26:38.020Z,4.34
2017-03-25T02:27:34.389Z,4.32
2017-03-25T02:28:15.095Z,4.34
2017-03-25T02:29:06.494Z,4.34
2017-03-25T02:32:52.895Z,4.2
2017-03-25T02:33:33.551Z,4.2
2017-03-25T02:34:14.210Z,4.28
2017-03-25T02:34:54.854Z,4.17
2017-03-25T02:35:35.524Z,4.19
2017-03-25T02:36:16.189Z,4.14
2017-03-25T02:36:56.804Z,4.19
2017-03-25T02:37:38.387Z,4.2
2017-03-25T02:38:19.041Z,4.16
2017-03-25T02:39:01.641Z,4.2
2017-03-25T02:39:42.293Z,4.26
2017-03-25T02:40:22.946Z,4.23
2017-03-25T02:41:03.613Z,4.17
2017-03-25T02:41:49.169Z,4.24
2017-03-25T02:51:59.489Z,4.06
2017-03-25T02:52:40.042Z,4.12
2017-03-25T02:53:22.772Z,4.1
2017-03-25T02:54:03.413Z,4.14
2017-03-25T02:54:43.998Z,4.13
2017-03-25T02:55:24.675Z,4.13
2017-03-25T02:56:17.269Z,4.14
2017-03-25T02:58:30.651Z,4.06
2017-03-25T02:59:11.226Z,4.01
2017-03-25T02:59:51.831Z,3.99
2017-03-25T03:00:34.478Z,3.95
2017-03-25T03:01:15.071Z,4.01
2017-03-25T03:01:55.725Z,3.99
2017-03-25T03:02:36.385Z,4.01
2017-03-25T03:03:17.095Z,3.99
2017-03-25T03:03:57.696Z,3.95
2017-03-25T03:04:38.340Z,4.01
2017-03-25T03:05:18.999Z,3.96
2017-03-25T03:06:01.615Z,4.04
2017-03-25T03:06:43.278Z,3.96
2017-03-25T03:07:23.864Z,3.99
2017-03-25T03:08:04.542Z,3.96
2017-03-25T03:08:45.161Z,3.98
2017-03-25T03:09:26.748Z,4.04
2017-03-25T03:10:08.424Z,3.95
2017-03-25T03:10:49.075Z,3.96
2017-03-25T03:11:29.754Z,3.94
2017-03-25T03:12:11.350Z,3.95
2017-03-25T03:12:51.917Z,3.96
2017-03-25T03:13:32.570Z,4.01
2017-03-25T03:14:13.161Z,4.01
2017-03-25T03:14:56.725Z,3.98
2017-03-25T03:15:37.305Z,3.91
2017-03-25T03:16:17.946Z,3.96
2017-03-25T03:17:00.580Z,3.91
2017-03-25T03:17:41.193Z,3.84
2017-03-25T03:18:21.748Z,3.96
2017-03-25T03:19:02.403Z,3.94
2017-03-25T03:19:42.991Z,3.88
2017-03-25T03:20:24.614Z,3.92
2017-03-25T03:21:05.168Z,3.92
2017-03-25T03:21:45.880Z,3.86
2017-03-25T03:22:26.524Z,3.92
2017-03-25T03:23:07.100Z,3.84
2017-03-25T03:23:47.697Z,3.84
2017-03-25T03:24:28.377Z,3.91
2017-03-25T03:25:08.977Z,3.88
2017-03-25T03:25:49.653Z,3.87
2017-03-25T03:26:30.303Z,3.84
2017-03-25T03:27:10.933Z,3.78
2017-03-25T03:27:51.542Z,3.86
2017-03-25T03:28:32.242Z,3.84
2017-03-25T03:29:12.825Z,3.83
2017-03-25T03:29:53.470Z,3.78
2017-03-25T03:30:34.060Z,3.86
2017-03-25T03:31:14.652Z,3.83
2017-03-25T03:31:55.212Z,3.91
2017-03-25T03:32:35.877Z,3.86
2017-03-25T03:33:16.505Z,3.91
2017-03-25T03:33:57.076Z,3.84
2017-03-25T03:34:37.716Z,3.86
2017-03-25T03:35:18.361Z,3.87
2017-03-25T03:35:58.923Z,3.83
2017-03-25T03:36:40.493Z,3.84
2017-03-25T03:37:21.143Z,3.88
2017-03-25T03:38:01.709Z,3.88
2017-03-25T03:38:42.368Z,3.86
2017-03-25T03:39:23.036Z,3.91
2017-03-25T03:40:03.676Z,3.84
2017-03-25T03:40:44.316Z,3.87
2017-03-25T03:41:25.377Z,3.86
2017-03-25T03:42:06.996Z,3.84
2017-03-25T03:42:47.591Z,3.86
2017-03-25T03:43:28.160Z,3.86
2017-03-25T03:44:08.818Z,3.86
2017-03-25T03:44:49.404Z,3.87
2017-03-25T03:45:30.012Z,3.87
2017-03-25T03:46:10.562Z,3.8
2017-03-25T03:46:51.218Z,3.81
2017-03-25T03:47:31.870Z,3.86
2017-03-25T03:48:12.522Z,3.8
2017-03-25T03:48:53.090Z,3.81
2017-03-25T03:49:33.719Z,3.74
2017-03-25T03:50:14.394Z,3.84
2017-03-25T03:50:55.030Z,3.84
2017-03-25T03:51:35.686Z,3.87
2017-03-25T03:52:16.367Z,3.84
2017-03-25T03:52:56.991Z,3.83
2017-03-25T03:53:37.649Z,3.81
2017-03-25T03:54:18.290Z,3.81
2017-03-25T03:54:58.945Z,3.83
2017-03-25T03:55:39.598Z,3.69
2017-03-25T03:56:20.264Z,3.8
2017-03-25T03:57:00.905Z,3.81
2017-03-25T03:57:41.502Z,3.8
2017-03-25T03:58:22.191Z,3.78
2017-03-25T03:59:02.758Z,3.83
2017-03-25T03:59:43.420Z,3.8
2017-03-25T04:00:24.110Z,3.77
2017-03-25T04:01:04.703Z,3.7
2017-03-25T04:01:45.278Z,3.83
2017-03-25T04:02:25.928Z,3.83
2017-03-25T04:03:06.561Z,3.8
2017-03-25T04:03:47.140Z,3.86
2017-03-25T04:04:27.802Z,3.84
2017-03-25T04:05:08.418Z,3.84
2017-03-25T04:05:48.985Z,3.84
2017-03-25T04:06:29.685Z,3.86
2017-03-25T04:07:10.268Z,3.84
2017-03-25T04:07:50.839Z,3.86
2017-03-25T04:08:31.490Z,3.87
2017-03-25T04:09:12.126Z,3.86
2017-03-25T04:09:52.732Z,3.86
2017-03-25T04:10:33.352Z,3.81
2017-03-25T04:11:13.988Z,3.8
2017-03-25T04:11:54.559Z,3.74
2017-03-25T04:12:35.204Z,3.81
2017-03-25T04:13:15.862Z,3.83
2017-03-25T04:13:56.500Z,3.77
2017-03-25T04:14:37.154Z,3.77
2017-03-25T04:15:17.851Z,3.84
2017-03-25T04:15:58.489Z,3.76
2017-03-25T04:16:39.111Z,3.81
2017-03-25T04:17:19.865Z,3.83
2017-03-25T04:18:00.515Z,3.81
2017-03-25T04:18:41.166Z,3.81
2017-03-25T04:19:21.874Z,3.81
2017-03-25T04:20:02.505Z,3.84
2017-03-25T04:20:43.149Z,3.84
2017-03-25T04:21:23.793Z,3.84
2017-03-25T04:22:04.446Z,3.86
2017-03-25T04:22:45.106Z,3.8
2017-03-25T04:23:25.760Z,3.76
2017-03-25T04:24:06.401Z,3.83
2017-03-25T04:24:47.056Z,3.74
2017-03-25T04:25:27.718Z,3.66
2017-03-25T04:26:08.362Z,3.76
2017-03-25T04:26:49.002Z,3.7
2017-03-25T04:27:29.615Z,3.69
2017-03-25T04:28:10.203Z,3.63
2017-03-25T04:28:50.754Z,3.74
2017-03-25T04:29:31.415Z,3.74
2017-03-25T04:30:12.017Z,3.68
2017-03-25T04:30:52.711Z,3.78
2017-03-25T04:31:33.261Z,3.66
2017-03-25T04:32:13.932Z,3.77
2017-03-25T04:32:54.567Z,3.63
2017-03-25T04:33:35.121Z,3.7
2017-03-25T04:34:15.790Z,3.7
2017-03-25T04:34:56.424Z,3.7
2017-03-25T04:35:37.043Z,3.66
2017-03-25T04:36:17.644Z,3.66
2017-03-25T04:36:58.278Z,3.62
2017-03-25T04:37:38.846Z,3.62
2017-03-25T04:38:19.499Z,3.6
2017-03-25T04:39:00.135Z,3.6
2017-03-25T04:39:40.704Z,3.63
2017-03-25T04:40:21.369Z,3.56
2017-03-25T04:41:02.010Z,3.63
2017-03-25T04:41:42.534Z,3.63
2017-03-25T04:42:23.211Z,3.65
2017-03-25T04:43:03.857Z,3.53
2017-03-25T04:43:44.507Z,3.6
2017-03-25T04:44:25.169Z,3.51
2017-03-25T04:45:05.816Z,3.58
2017-03-25T04:45:46.480Z,3.58
2017-03-25T04:46:27.129Z,3.59
2017-03-25T04:47:07.772Z,3.53
2017-03-25T04:47:48.430Z,3.51
2017-03-25T04:48:29.087Z,3.53
2017-03-25T04:49:09.745Z,3.5
2017-03-25T04:49:50.392Z,3.59
2017-03-25T04:50:31.046Z,3.55
2017-03-25T04:51:11.701Z,3.59
2017-03-25T04:51:52.350Z,3.51
2017-03-25T04:52:32.942Z,3.45
2017-03-25T04:53:13.541Z,3.42
2017-03-25T04:53:54.119Z,3.42
2017-03-25T04:54:34.769Z,3.44
2017-03-25T04:55:15.457Z,3.44
2017-03-25T04:55:56.050Z,3.36
2017-03-25T04:56:36.614Z,3.44
2017-03-25T04:57:17.316Z,3.45
2017-03-25T04:57:58.009Z,3.47
2017-03-25T04:58:38.575Z,3.37
2017-03-25T04:59:19.227Z,3.42
2017-03-25T04:59:59.859Z,3.44
2017-03-25T05:00:40.434Z,3.41
2017-03-25T05:01:21.087Z,3.32
2017-03-25T05:02:01.758Z,3.36
2017-03-25T05:02:42.339Z,3.36
2017-03-25T05:03:22.938Z,3.29
2017-03-25T05:04:03.528Z,3.29
2017-03-25T05:04:44.121Z,3.25
2017-03-25T05:05:24.698Z,3.25
2017-03-25T05:06:05.345Z,3.26
2017-03-25T05:06:45.940Z,3.31
2017-03-25T05:07:26.529Z,3.21
2017-03-25T05:08:07.090Z,3.23
2017-03-25T05:08:47.776Z,3.29
2017-03-25T05:09:28.452Z,3.28
2017-03-25T05:10:09.040Z,3.21
2017-03-25T05:10:49.617Z,3.31
2017-03-25T05:11:30.262Z,3.26
2017-03-25T05:12:10.861Z,3.34
2017-03-25T05:12:51.448Z,3.25
2017-03-25T05:13:32.039Z,3.32
2017-03-25T05:14:12.675Z,3.25
2017-03-25T05:14:53.260Z,3.14
2017-03-25T05:15:33.854Z,3.14
2017-03-25T05:16:14.412Z,3.23
2017-03-25T05:16:55.073Z,3.23
2017-03-25T05:17:35.657Z,3.28
2017-03-25T05:18:16.257Z,3.23
2017-03-25T05:18:56.821Z,3.32
2017-03-25T05:19:37.491Z,3.32
2017-03-25T05:20:18.177Z,3.22
2017-03-25T05:20:58.768Z,3.21
2017-03-25T05:21:39.331Z,3.21
2017-03-25T05:22:20.010Z,3.37
2017-03-25T05:23:00.682Z,3.18
2017-03-25T05:23:41.278Z,3.23
2017-03-25T05:24:21.854Z,3.18
2017-03-25T05:25:02.506Z,3.28
2017-03-25T05:25:43.083Z,3.22
2017-03-25T05:26:23.685Z,3.36
2017-03-25T05:27:04.234Z,3.31
2017-03-25T05:27:44.904Z,3.23
2017-03-25T05:28:25.468Z,3.25
2017-03-25T05:29:06.037Z,3.29
2017-03-25T05:29:46.652Z,3.32
2017-03-25T05:30:27.239Z,3.26
2017-03-25T05:31:07.794Z,3.37
2017-03-25T05:31:48.424Z,3.23
2017-03-25T05:32:29.049Z,3.21
2017-03-25T05:33:09.661Z,3.26
2017-03-25T05:33:50.262Z,3.18
2017-03-25T05:34:30.922Z,3.22
2017-03-25T05:35:11.588Z,3.25
2017-03-25T05:35:52.230Z,3.14
2017-03-25T05:36:32.899Z,3.23
2017-03-25T05:37:13.528Z,3.19
2017-03-25T05:37:54.183Z,3.26
2017-03-25T05:38:34.840Z,3.23
2017-03-25T05:39:15.555Z,3.21
2017-03-25T05:39:56.144Z,3.13
2017-03-25T05:40:36.800Z,3.31
2017-03-25T05:41:17.494Z,3.21
2017-03-25T05:41:58.114Z,3.29
2017-03-25T05:42:38.735Z,3.29
2017-03-25T05:43:19.310Z,3.36
2017-03-25T05:43:59.958Z,3.28
2017-03-25T05:44:40.594Z,3.26
2017-03-25T05:45:21.150Z,3.29
2017-03-25T05:46:01.832Z,3.36
2017-03-25T05:46:42.450Z,3.32
2017-03-25T05:47:23.022Z,3.36
2017-03-25T05:48:03.970Z,3.34
2017-03-25T05:48:44.620Z,3.41
2017-03-25T05:49:25.287Z,3.36
2017-03-25T05:50:05.941Z,3.36
2017-03-25T05:50:46.591Z,3.37
2017-03-25T05:51:28.300Z,3.4
2017-03-25T05:52:08.915Z,3.36
2017-03-25T05:52:49.562Z,3.42
2017-03-25T05:53:30.216Z,3.29
2017-03-25T05:54:10.863Z,3.42
2017-03-25T05:54:51.530Z,3.41
2017-03-25T05:55:32.231Z,3.36
2017-03-25T05:56:12.853Z,3.4
2017-03-25T05:56:53.483Z,3.42
2017-03-25T05:57:34.131Z,3.36
2017-03-25T05:58:14.793Z,3.45
2017-03-25T05:58:55.442Z,3.4
2017-03-25T05:59:36.092Z,3.4
2017-03-25T06:00:16.746Z,3.45
2017-03-25T06:00:57.435Z,3.34
2017-03-25T06:01:38.042Z,3.45
2017-03-25T06:02:18.702Z,3.44
2017-03-25T06:02:59.406Z,3.45
2017-03-25T06:03:39.995Z,3.45
2017-03-25T06:04:20.586Z,3.41
2017-03-25T06:05:01.224Z,3.44
2017-03-25T06:05:41.912Z,3.45
2017-03-25T06:06:22.504Z,3.44
2017-03-25T06:07:03.080Z,3.45
2017-03-25T06:07:43.730Z,3.47
2017-03-25T06:08:24.386Z,3.48
2017-03-25T06:09:05.029Z,3.5
2017-03-25T06:09:45.692Z,3.51
2017-03-25T06:10:26.339Z,3.53
2017-03-25T06:11:06.998Z,3.55
2017-03-25T06:11:47.648Z,3.55
2017-03-25T06:12:28.292Z,3.56
2017-03-25T06:13:08.953Z,3.59
2017-03-25T06:13:49.642Z,3.66
2017-03-25T06:14:30.254Z,3.66
2017-03-25T06:15:10.902Z,3.56
2017-03-25T06:15:51.567Z,3.66
2017-03-25T06:16:32.220Z,3.62
2017-03-25T06:17:12.965Z,3.63
2017-03-25T06:17:53.606Z,3.59
2017-03-25T06:18:34.180Z,3.7
2017-03-25T06:19:14.828Z,3.69
2017-03-25T06:19:55.562Z,3.68
2017-03-25T06:20:36.130Z,3.78
2017-03-25T06:21:16.779Z,3.8
2017-03-25T06:21:57.421Z,3.7
2017-03-25T06:22:38.065Z,3.8
2017-03-25T06:23:18.724Z,3.76
2017-03-25T06:23:59.423Z,3.81
2017-03-25T06:24:40.032Z,3.86
2017-03-25T06:25:20.683Z,3.78
2017-03-25T06:26:01.336Z,3.81
2017-03-25T06:26:41.991Z,3.76
2017-03-25T06:27:22.635Z,3.86
2017-03-25T06:28:03.295Z,3.84
2017-03-25T06:28:43.951Z,3.87
2017-03-25T06:29:24.601Z,3.87
2017-03-25T06:30:05.254Z,3.87
2017-03-25T06:30:45.909Z,3.84
2017-03-25T06:31:26.554Z,3.94
2017-03-25T06:32:07.206Z,3.88
2017-03-25T06:32:47.881Z,3.94
2017-03-25T06:33:28.525Z,3.95
2017-03-25T06:34:09.171Z,3.95
2017-03-25T06:34:49.825Z,3.87
2017-03-25T06:35:30.482Z,3.91
2017-03-25T06:36:11.131Z,3.98
2017-03-25T06:36:51.784Z,4.02
2017-03-25T06:37:32.386Z,3.98
2017-03-25T06:38:13.010Z,3.96
2017-03-25T06:38:53.602Z,3.96
2017-03-25T06:39:34.283Z,4.12
2017-03-25T06:40:14.870Z,4.04
2017-03-25T06:40:55.508Z,4.08
2017-03-25T06:41:36.264Z,4.1
2017-03-25T06:42:16.897Z,4.19
2017-03-25T06:42:57.456Z,4.12
2017-03-25T06:43:38.161Z,4.19
2017-03-25T06:44:18.707Z,4.16
2017-03-25T06:44:59.314Z,4.22
2017-03-25T06:45:39.883Z,4.31
2017-03-25T06:46:20.533Z,4.3
2017-03-25T06:47:01.113Z,4.3
2017-03-25T06:47:41.686Z,4.31
2017-03-25T06:48:22.243Z,4.28
2017-03-25T06:49:02.843Z,4.31
2017-03-25T06:49:43.422Z,4.32
2017-03-25T06:50:24.019Z,4.35
2017-03-25T06:51:04.578Z,4.38
2017-03-25T06:51:45.241Z,4.42
2017-03-25T06:52:25.876Z,4.48
2017-03-25T06:53:06.450Z,4.41
2017-03-25T06:53:47.089Z,4.48
2017-03-25T06:54:27.737Z,4.53
2017-03-25T06:55:08.294Z,4.58
2017-03-25T06:55:48.961Z,4.56
2017-03-25T06:56:29.587Z,4.52
2017-03-25T06:57:10.174Z,4.66
2017-03-25T06:57:50.804Z,4.59
2017-03-25T06:58:31.399Z,4.6
2017-03-25T06:59:12.046Z,4.66
2017-03-25T06:59:52.630Z,4.73
2017-03-25T07:00:33.311Z,4.67
2017-03-25T07:01:13.901Z,4.7
2017-03-25T07:01:54.518Z,4.68
2017-03-25T07:02:35.099Z,4.74
2017-03-25T07:03:15.716Z,4.71
2017-03-25T07:03:56.317Z,4.8
2017-03-25T07:04:36.916Z,4.84
2017-03-25T07:05:17.512Z,4.73
2017-03-25T07:05:58.137Z,4.82
2017-03-25T07:06:38.713Z,4.84
2017-03-25T07:07:19.315Z,4.8
2017-03-25T07:07:59.959Z,4.89
2017-03-25T07:08:41.644Z,4.87
2017-03-25T07:09:22.399Z,4.9
2017-03-25T07:10:03.046Z,4.96
2017-03-25T07:10:43.699Z,4.94
2017-03-25T07:11:24.352Z,4.97
2017-03-25T07:12:05.011Z,5.07
2017-03-25T07:12:45.664Z,4.94
2017-03-25T07:13:26.318Z,4.97
2017-03-25T07:14:06.971Z,4.97
2017-03-25T07:14:47.621Z,5.07
2017-03-25T07:15:28.276Z,5.05
2017-03-25T07:16:08.952Z,5.12
2017-03-25T07:16:49.583Z,5.1
2017-03-25T07:17:30.229Z,5.12
2017-03-25T07:18:10.880Z,5.17
2017-03-25T07:18:51.538Z,5.12
2017-03-25T07:19:32.188Z,5.2
2017-03-25T07:20:12.842Z,5.23
2017-03-25T07:20:53.499Z,5.23
2017-03-25T07:21:34.144Z,5.25
2017-03-25T07:22:14.799Z,5.29
2017-03-25T07:22:55.452Z,5.25
2017-03-25T07:23:36.210Z,5.25
2017-03-25T07:24:16.869Z,5.43
2017-03-25T07:24:57.613Z,5.38
2017-03-25T07:25:38.270Z,5.33
2017-03-25T07:26:18.924Z,5.44
2017-03-25T07:26:59.577Z,5.41
2017-03-25T07:27:40.186Z,5.41
2017-03-25T07:28:20.795Z,5.5
2017-03-25T07:29:01.433Z,5.54
2017-03-25T07:29:42.001Z,5.5
2017-03-25T07:30:22.659Z,5.59
2017-03-25T07:31:03.289Z,5.64
2017-03-25T07:31:43.860Z,5.66
2017-03-25T07:32:24.510Z,5.65
2017-03-25T07:33:06.139Z,5.57
2017-03-25T07:33:46.699Z,5.75
2017-03-25T07:34:27.352Z,5.76
2017-03-25T07:35:08.009Z,5.73
2017-03-25T07:35:48.661Z,5.8
2017-03-25T07:36:29.315Z,5.8
2017-03-25T07:37:09.967Z,5.9
2017-03-25T07:37:50.564Z,5.9
2017-03-25T07:38:33.205Z,5.97
2017-03-25T07:39:13.771Z,6.01
2017-03-25T07:39:54.527Z,5.99
2017-03-25T07:40:35.144Z,6.05
2017-03-25T07:41:15.714Z,6.07
2017-03-25T07:41:56.298Z,6.07
2017-03-25T07:42:36.932Z,6.12
2017-03-25T07:43:17.525Z,6.19
2017-03-25T07:43:58.121Z,6.2
2017-03-25T07:44:38.704Z,6.19
2017-03-25T07:45:19.339Z,6.24
2017-03-25T07:46:00.955Z,6.22
2017-03-25T07:46:41.654Z,6.22
2017-03-25T07:47:22.271Z,6.36
2017-03-25T07:48:02.875Z,6.38
2017-03-25T07:48:43.459Z,6.41
2017-03-25T07:49:24.062Z,6.51
2017-03-25T07:50:04.760Z,6.44
2017-03-25T07:50:45.386Z,6.59
2017-03-25T07:51:25.984Z,6.56
2017-03-25T07:52:06.675Z,6.63
2017-03-25T07:52:47.236Z,6.66
2017-03-25T07:53:27.897Z,6.67
2017-03-25T07:54:08.464Z,6.74
2017-03-25T07:54:49.026Z,6.78
2017-03-25T07:55:29.648Z,6.88
2017-03-25T07:56:10.290Z,6.82
2017-03-25T07:56:50.859Z,6.92
2017-03-25T07:57:31.499Z,6.87
2017-03-25T07:58:12.161Z,6.87
2017-03-25T07:58:52.814Z,6.88
2017-03-25T07:59:33.467Z,6.95
2017-03-25T08:00:14.125Z,6.85
2017-03-25T08:00:54.775Z,7
2017-03-25T08:01:35.425Z,7.14
2017-03-25T08:02:16.081Z,7.07
2017-03-25T08:02:56.740Z,7.05
2017-03-25T08:03:37.384Z,7.17
2017-03-25T08:04:18.039Z,7.07
2017-03-25T08:04:58.693Z,7.18
2017-03-25T08:05:39.397Z,7.15
2017-03-25T08:06:19.983Z,7.25
2017-03-25T08:07:00.647Z,7.28
2017-03-25T08:07:41.304Z,7.31
2017-03-25T08:08:21.959Z,7.32
2017-03-25T08:09:02.633Z,7.33
2017-03-25T08:09:43.255Z,7.39
2017-03-25T08:10:23.923Z,7.4
2017-03-25T08:11:04.613Z,7.43
2017-03-25T08:11:45.225Z,7.38
2017-03-25T08:12:25.878Z,7.43
2017-03-25T08:13:06.457Z,7.42
2017-03-25T08:13:47.063Z,7.47
2017-03-25T08:14:27.632Z,7.5
2017-03-25T08:15:08.267Z,7.58
2017-03-25T08:15:48.865Z,7.56
2017-03-25T08:16:30.489Z,7.56
2017-03-25T08:17:11.050Z,7.6
2017-03-25T08:17:51.719Z,7.56
2017-03-25T08:18:32.292Z,7.72
2017-03-25T08:19:12.903Z,7.69
2017-03-25T08:19:53.450Z,7.85
2017-03-25T08:20:34.109Z,7.95
2017-03-25T08:21:14.803Z,7.87
2017-03-25T08:21:55.510Z,7.94
2017-03-25T08:22:36.069Z,7.94
2017-03-25T08:23:16.735Z,8
2017-03-25T08:23:57.368Z,8.06
2017-03-25T08:24:38.042Z,7.94
2017-03-25T08:25:18.693Z,8.03
2017-03-25T08:25:59.365Z,8.05
2017-03-25T08:26:39.979Z,8.01
2017-03-25T08:27:20.634Z,8
2017-03-25T08:28:01.235Z,8.03
2017-03-25T08:28:42.856Z,8.01
2017-03-25T08:29:23.558Z,8.01
2017-03-25T08:30:04.185Z,8.05
2017-03-25T08:30:44.777Z,8.06
2017-03-25T08:31:25.368Z,8.08
2017-03-25T08:32:05.917Z,8.09
2017-03-25T08:32:46.592Z,8.23
2017-03-25T08:33:27.248Z,8.15
2017-03-25T08:34:07.895Z,8.16
2017-03-25T08:34:48.529Z,8.26
2017-03-25T08:35:29.204Z,8.26
2017-03-25T08:36:09.902Z,8.26
2017-03-25T08:36:50.511Z,8.24
2017-03-25T08:37:31.183Z,8.33
2017-03-25T08:38:13.852Z,8.38
2017-03-25T08:38:54.503Z,8.41
2017-03-25T08:39:35.235Z,8.49
2017-03-25T08:40:15.848Z,8.53
2017-03-25T08:40:56.464Z,8.69
2017-03-25T08:41:37.125Z,8.71
2017-03-25T08:42:17.809Z,8.66
2017-03-25T08:42:58.433Z,8.79
2017-03-25T08:43:39.087Z,8.74
2017-03-25T08:44:20.160Z,8.84
2017-03-25T08:45:00.800Z,8.87
2017-03-25T08:45:41.451Z,8.94
2017-03-25T08:46:22.104Z,8.91
2017-03-25T08:47:02.787Z,8.99
2017-03-25T08:47:43.439Z,9.02
2017-03-25T08:48:24.048Z,9.11
2017-03-25T08:49:04.621Z,9.03
2017-03-25T08:49:45.326Z,9.06
2017-03-25T08:50:26.008Z,9.03
2017-03-25T08:51:06.587Z,9.18
2017-03-25T08:51:48.229Z,9.11
2017-03-25T08:52:28.880Z,9.23
2017-03-25T08:53:09.433Z,9.21
2017-03-25T08:53:50.112Z,9.23
2017-03-25T08:54:30.750Z,9.29
2017-03-25T08:55:11.413Z,9.34
2017-03-25T08:55:52.095Z,9.32
2017-03-25T08:56:32.841Z,9.39
2017-03-25T08:57:13.583Z,9.39
2017-03-25T08:57:55.261Z,9.36
2017-03-25T08:58:36.006Z,9.39
2017-03-25T08:59:16.765Z,9.59
2017-03-25T08:59:57.524Z,9.59
2017-03-25T09:00:39.195Z,9.46
2017-03-25T09:01:19.951Z,9.51
2017-03-25T09:02:00.705Z,9.58
2017-03-25T09:02:41.879Z,9.59
2017-03-25T09:03:22.765Z,9.5
2017-03-25T09:04:03.488Z,9.65
2017-03-25T09:04:44.243Z,9.72
2017-03-25T09:05:24.996Z,9.64
2017-03-25T09:06:05.660Z,9.58
2017-03-25T09:06:46.401Z,9.66
2017-03-25T09:07:27.166Z,9.69
2017-03-25T09:08:07.916Z,9.73
2017-03-25T09:08:48.681Z,9.77
2017-03-25T09:09:29.420Z,9.8
2017-03-25T09:10:10.180Z,9.79
2017-03-25T09:10:50.948Z,9.86
2017-03-25T09:11:31.700Z,9.91
2017-03-25T09:12:12.447Z,9.95
2017-03-25T09:12:53.212Z,10.02
2017-03-25T09:13:33.941Z,9.95
2017-03-25T09:14:14.524Z,9.97
2017-03-25T09:14:55.278Z,10.05
2017-03-25T09:15:36.006Z,10.07
2017-03-25T09:16:16.586Z,10.09
2017-03-25T09:16:57.329Z,10.17
2017-03-25T09:17:38.068Z,10.07
2017-03-25T09:18:18.822Z,10.1
2017-03-25T09:18:59.565Z,10.15
2017-03-25T09:19:40.232Z,10.07